createdAt,value
2018-07-24T00:01:59.167Z,18.80
2018-07-24T00:04:26.063Z,18.80
2018-07-24T00:06:52.966Z,18.80
2018-07-24T00:09:19.863Z,18.80
2018-07-24T00:11:46.763Z,18.80
2018-07-24T00:14:13.893Z,18.70
2018-07-24T00:16:40.760Z,18.70
2018-07-24T00:19:07.671Z,18.70
2018-07-24T00:21:34.582Z,18.60
2018-07-24T00:24:01.449Z,18.60
2018-07-24T00:26:28.379Z,18.60
2018-07-24T00:28:55.270Z,18.50
2018-07-24T00:31:22.163Z,18.50
2018-07-24T00:33:49.036Z,18.50
2018-07-24T00:36:15.923Z,18.40
2018-07-24T00:38:43.051Z,18.40
2018-07-24T00:41:09.971Z,18.40
2018-07-24T00:43:36.850Z,18.30
2018-07-24T00:46:03.739Z,18.30
2018-07-24T00:48:30.607Z,18.30
2018-07-24T00:50:57.644Z,18.30
2018-07-24T00:53:24.515Z,18.30
2018-07-24T00:55:51.403Z,18.30
2018-07-24T00:58:18.283Z,18.30
2018-07-24T01:00:45.307Z,18.40
2018-07-24T01:03:12.175Z,18.40
2018-07-24T01:05:39.075Z,18.40
2018-07-24T01:08:05.995Z,18.40
2018-07-24T01:10:32.884Z,18.40
2018-07-24T01:12:59.771Z,18.40
2018-07-24T01:15:27.413Z,18.40
2018-07-24T01:17:55.177Z,18.40
2018-07-24T01:20:22.855Z,18.40
2018-07-24T01:22:50.912Z,18.40
2018-07-24T01:25:17.847Z,18.40
2018-07-24T01:27:44.719Z,18.40
2018-07-24T01:30:11.620Z,18.50
2018-07-24T01:32:38.488Z,18.50
2018-07-24T01:35:05.358Z,18.50
2018-07-24T01:37:32.252Z,18.60
2018-07-24T01:39:59.140Z,18.60
2018-07-24T01:42:26.028Z,18.80
2018-07-24T01:44:52.895Z,18.80
2018-07-24T01:47:19.782Z,18.80
2018-07-24T01:49:46.649Z,18.80
2018-07-24T01:52:13.543Z,18.90
2018-07-24T01:54:40.437Z,18.90
2018-07-24T01:57:07.344Z,19.00
2018-07-24T01:59:34.211Z,18.90
2018-07-24T02:02:01.096Z,19.00
2018-07-24T02:04:27.967Z,19.00
2018-07-24T02:06:54.864Z,19.00
2018-07-24T02:09:21.731Z,19.00
2018-07-24T02:11:48.621Z,19.00
2018-07-24T02:14:15.514Z,18.90
2018-07-24T02:16:42.411Z,18.90
2018-07-24T02:21:36.183Z,18.90
2018-07-24T02:24:03.052Z,18.90
2018-07-24T02:26:30.123Z,18.80
2018-07-24T02:28:57.068Z,18.80
2018-07-24T02:31:23.975Z,18.80
2018-07-24T02:33:50.979Z,18.80
2018-07-24T02:36:18.027Z,18.90
2018-07-24T02:38:45.201Z,18.90
2018-07-24T02:41:12.104Z,18.90
2018-07-24T02:43:38.993Z,18.90
2018-07-24T02:46:05.876Z,18.90
2018-07-24T02:48:32.767Z,18.90
2018-07-24T02:50:59.635Z,18.80
2018-07-24T02:53:26.544Z,18.80
2018-07-24T02:55:53.452Z,18.70
2018-07-24T02:58:20.640Z,18.70
2018-07-24T03:00:47.563Z,18.60
2018-07-24T03:03:14.423Z,18.60
2018-07-24T03:05:41.295Z,18.50
2018-07-24T03:08:08.183Z,18.50
2018-07-24T03:10:35.068Z,18.50
2018-07-24T03:13:02.143Z,18.40
2018-07-24T03:15:29.044Z,18.30
2018-07-24T03:17:55.924Z,18.30
2018-07-24T03:20:22.804Z,18.20
2018-07-24T03:22:49.691Z,18.20
2018-07-24T03:25:16.557Z,18.10
2018-07-24T03:27:43.449Z,18.10
2018-07-24T03:30:10.315Z,18.00
2018-07-24T03:32:37.199Z,18.00
2018-07-24T03:35:04.064Z,17.90
2018-07-24T03:39:57.826Z,17.90
2018-07-24T03:42:24.758Z,17.90
2018-07-24T03:44:51.652Z,17.90
2018-07-24T03:47:18.520Z,18.00
2018-07-24T03:49:45.412Z,18.10
2018-07-24T03:52:12.276Z,18.20
2018-07-24T03:54:39.159Z,18.30
2018-07-24T03:57:06.019Z,18.40
2018-07-24T03:59:32.908Z,18.50
2018-07-24T04:01:59.768Z,18.50
2018-07-24T04:06:53.523Z,18.70
2018-07-24T04:09:20.422Z,18.80
2018-07-24T04:11:47.296Z,18.80
2018-07-24T04:14:14.195Z,19.00
2018-07-24T04:16:41.367Z,19.10
2018-07-24T04:19:08.292Z,19.20
2018-07-24T04:21:35.159Z,19.30
2018-07-24T04:24:02.026Z,19.40
2018-07-24T04:26:28.931Z,19.50
2018-07-24T04:28:55.822Z,19.50
2018-07-24T04:31:22.728Z,19.70
2018-07-24T04:33:49.651Z,19.80
2018-07-24T04:36:16.832Z,19.80
2018-07-24T04:38:43.696Z,19.90
2018-07-24T04:41:10.692Z,20.10
2018-07-24T04:43:37.587Z,20.10
2018-07-24T04:46:04.451Z,20.30
2018-07-24T04:48:31.764Z,20.40
2018-07-24T04:50:58.613Z,20.40
2018-07-24T04:53:25.515Z,20.60
2018-07-24T04:55:52.380Z,20.60
2018-07-24T04:58:19.304Z,20.70
2018-07-24T05:00:46.163Z,20.80
2018-07-24T05:03:13.037Z,20.90
2018-07-24T05:05:39.963Z,21.00
2018-07-24T05:08:06.899Z,21.10
2018-07-24T05:10:33.809Z,21.10
2018-07-24T05:13:00.743Z,21.20
2018-07-24T05:15:27.878Z,21.30
2018-07-24T05:17:55.298Z,21.40
2018-07-24T05:20:22.171Z,21.50
2018-07-24T05:22:49.255Z,21.60
2018-07-24T05:25:16.172Z,21.70
2018-07-24T05:27:43.071Z,21.80
2018-07-24T05:30:09.995Z,21.90
2018-07-24T05:32:36.868Z,22.10
2018-07-24T05:35:03.812Z,22.20
2018-07-24T05:37:30.684Z,22.20
2018-07-24T05:39:57.615Z,22.40
2018-07-24T05:42:24.491Z,22.50
2018-07-24T05:44:51.359Z,22.70
2018-07-24T05:47:18.274Z,22.80
2018-07-24T05:49:45.530Z,22.90
2018-07-24T05:52:12.459Z,23.00
2018-07-24T05:54:39.364Z,23.20
2018-07-24T05:57:06.288Z,23.30
2018-07-24T05:59:33.163Z,23.40
2018-07-24T06:04:27.035Z,23.60
2018-07-24T06:06:53.903Z,23.70
2018-07-24T06:09:20.820Z,23.90
2018-07-24T06:11:47.693Z,24.00
2018-07-24T06:14:14.611Z,24.10
2018-07-24T06:16:41.495Z,24.30
2018-07-24T06:19:08.604Z,24.50
2018-07-24T06:21:35.763Z,24.80
2018-07-24T06:24:02.969Z,25.10
2018-07-24T06:26:29.904Z,25.40
2018-07-24T06:28:56.775Z,25.70
2018-07-24T06:31:23.653Z,26.10
2018-07-24T06:33:50.571Z,26.50
2018-07-24T06:36:17.439Z,27.20
2018-07-24T06:38:44.355Z,27.70
2018-07-24T06:41:11.223Z,28.20
2018-07-24T06:43:38.140Z,28.70
2018-07-24T06:46:05.011Z,29.10
2018-07-24T06:48:31.888Z,29.10
2018-07-24T06:50:58.784Z,29.50
2018-07-24T06:53:25.660Z,29.70
2018-07-24T06:55:52.571Z,30.00
2018-07-24T06:58:26.121Z,30.40
2018-07-24T07:00:53.041Z,31.00
2018-07-24T07:03:19.961Z,31.40
2018-07-24T07:05:47.248Z,31.70
2018-07-24T07:10:41.023Z,32.00
2018-07-24T07:13:07.903Z,32.30
2018-07-24T07:15:35.212Z,32.60
2018-07-24T07:18:02.128Z,33.20
2018-07-24T07:20:29.023Z,33.50
2018-07-24T07:22:56.240Z,33.70
2018-07-24T07:25:23.364Z,34.00
2018-07-24T07:27:50.287Z,34.20
2018-07-24T07:30:17.157Z,33.80
2018-07-24T07:32:44.077Z,33.40
2018-07-24T07:35:10.998Z,33.70
2018-07-24T07:37:37.876Z,34.70
2018-07-24T07:40:04.859Z,35.50
2018-07-24T07:42:31.731Z,36.20
2018-07-24T07:44:58.653Z,36.70
2018-07-24T07:47:25.523Z,37.00
2018-07-24T07:49:52.440Z,37.40
2018-07-24T07:52:19.368Z,38.00
2018-07-24T07:54:46.253Z,38.70
2018-07-24T07:57:13.176Z,38.60
2018-07-24T07:59:40.100Z,38.60
2018-07-24T08:02:06.991Z,38.60
2018-07-24T08:04:34.510Z,38.70
2018-07-24T08:07:01.431Z,38.80
2018-07-24T08:09:28.587Z,39.10
2018-07-24T08:11:55.519Z,39.60
2018-07-24T08:14:22.392Z,39.60
2018-07-24T08:16:49.628Z,39.70
2018-07-24T08:19:16.495Z,39.60
2018-07-24T08:21:43.415Z,39.70
2018-07-24T08:24:10.467Z,39.80
2018-07-24T08:26:37.387Z,39.90
2018-07-24T08:29:04.267Z,40.20
2018-07-24T08:31:31.189Z,39.80
2018-07-24T08:33:58.399Z,39.70
2018-07-24T08:36:25.267Z,40.00
2018-07-24T08:38:52.848Z,39.90
2018-07-24T08:41:19.760Z,39.80
2018-07-24T08:43:46.675Z,40.10
2018-07-24T08:46:13.547Z,39.70
2018-07-24T08:48:40.461Z,40.00
2018-07-24T08:51:07.335Z,40.40
2018-07-24T08:56:01.375Z,40.60
2018-07-24T08:58:28.300Z,41.60
2018-07-24T09:00:55.178Z,41.50
2018-07-24T09:03:22.121Z,41.20
2018-07-24T09:05:49.044Z,41.00
2018-07-24T09:08:15.916Z,41.20
2018-07-24T09:10:42.831Z,41.20
2018-07-24T09:13:09.708Z,41.00
2018-07-24T09:15:36.733Z,41.80
2018-07-24T09:18:03.564Z,42.30
2018-07-24T09:20:30.480Z,43.10
2018-07-24T09:22:57.572Z,43.30
2018-07-24T09:25:24.523Z,43.60
2018-07-24T09:27:51.669Z,43.90
2018-07-24T09:30:18.592Z,44.60
2018-07-24T09:32:45.507Z,44.10
2018-07-24T09:35:12.404Z,44.10
2018-07-24T09:37:39.322Z,44.50
2018-07-24T09:40:06.197Z,44.70
2018-07-24T09:42:33.116Z,44.50
2018-07-24T09:45:00.031Z,44.40
2018-07-24T09:47:26.910Z,44.30
2018-07-24T09:49:53.827Z,44.90
2018-07-24T09:52:20.695Z,45.30
2018-07-24T09:54:47.607Z,45.20
2018-07-24T09:57:14.474Z,45.60
2018-07-24T09:59:41.392Z,45.60
2018-07-24T10:02:08.262Z,46.20
2018-07-24T10:04:35.175Z,46.50
2018-07-24T10:07:02.112Z,46.00
2018-07-24T10:09:28.991Z,45.70
2018-07-24T10:11:55.868Z,45.90
2018-07-24T10:14:22.791Z,45.90
2018-07-24T10:16:49.753Z,46.40
2018-07-24T10:19:16.655Z,46.50
2018-07-24T10:21:43.755Z,46.00
2018-07-24T10:24:10.673Z,46.40
2018-07-24T10:26:37.583Z,46.80
2018-07-24T10:29:04.459Z,45.90
2018-07-24T10:31:31.679Z,46.00
2018-07-24T10:33:58.556Z,46.10
2018-07-24T10:36:25.474Z,46.30
2018-07-24T10:38:52.348Z,45.80
2018-07-24T10:41:19.304Z,45.50
2018-07-24T10:43:46.219Z,45.00
2018-07-24T10:46:13.140Z,44.80
2018-07-24T10:48:40.008Z,44.30
2018-07-24T10:51:06.904Z,44.20
2018-07-24T10:53:33.829Z,44.10
2018-07-24T10:56:00.727Z,45.00
2018-07-24T10:58:27.642Z,44.50
2018-07-24T11:00:54.516Z,44.50
2018-07-24T11:03:21.423Z,45.80
2018-07-24T11:05:48.370Z,46.00
2018-07-24T11:08:15.292Z,46.60
2018-07-24T11:10:42.163Z,46.80
2018-07-24T11:13:09.351Z,47.90
2018-07-24T11:15:36.219Z,48.20
2018-07-24T11:18:03.145Z,48.40
2018-07-24T11:20:30.063Z,48.30
2018-07-24T11:22:57.033Z,47.90
2018-07-24T11:25:23.908Z,47.70
2018-07-24T11:27:50.927Z,47.20
2018-07-24T11:32:44.751Z,47.40
2018-07-24T11:35:11.807Z,47.30
2018-07-24T11:37:38.736Z,47.20
2018-07-24T11:40:05.661Z,47.90
2018-07-24T11:42:32.539Z,48.20
2018-07-24T11:44:59.457Z,48.10
2018-07-24T11:47:26.377Z,49.10
2018-07-24T11:49:53.257Z,49.60
2018-07-24T11:52:20.176Z,49.60
2018-07-24T11:54:47.111Z,48.30
2018-07-24T11:57:14.032Z,47.20
2018-07-24T11:59:40.909Z,46.70
2018-07-24T12:02:07.852Z,46.30
2018-07-24T12:04:34.739Z,45.00
2018-07-24T12:07:01.649Z,45.10
2018-07-24T12:09:28.567Z,45.60
2018-07-24T12:11:55.436Z,46.30
2018-07-24T12:14:22.638Z,46.80
2018-07-24T12:16:50.356Z,46.70
2018-07-24T12:19:17.311Z,46.50
2018-07-24T12:24:11.106Z,47.10
2018-07-24T12:26:38.015Z,47.20
2018-07-24T12:29:05.124Z,47.70
2018-07-24T12:31:32.052Z,48.30
2018-07-24T12:33:58.922Z,48.10
2018-07-24T12:36:25.824Z,47.10
2018-07-24T12:38:52.748Z,47.80
2018-07-24T12:41:19.664Z,48.10
2018-07-24T12:43:46.536Z,47.80
2018-07-24T12:46:13.450Z,48.50
2018-07-24T12:48:40.325Z,48.30
2018-07-24T12:51:07.250Z,47.40
2018-07-24T12:53:34.115Z,46.30
2018-07-24T12:56:01.030Z,46.80
2018-07-24T12:58:27.947Z,46.50
2018-07-24T13:00:54.963Z,46.30
2018-07-24T13:03:21.831Z,46.40
2018-07-24T13:05:48.702Z,47.10
2018-07-24T13:08:15.648Z,47.60
2018-07-24T13:10:42.539Z,47.30
2018-07-24T13:13:09.680Z,47.30
2018-07-24T13:15:36.595Z,46.60
2018-07-24T13:18:03.733Z,46.70
2018-07-24T13:20:30.672Z,46.50
2018-07-24T13:22:57.548Z,45.90
2018-07-24T13:25:24.462Z,46.40
2018-07-24T13:27:51.332Z,46.10
2018-07-24T13:30:18.318Z,45.80
2018-07-24T13:32:45.192Z,46.30
2018-07-24T13:35:12.072Z,46.10
2018-07-24T13:37:39.026Z,46.70
2018-07-24T13:40:05.911Z,47.30
2018-07-24T13:42:32.868Z,47.20
2018-07-24T13:44:59.764Z,47.40
2018-07-24T13:49:53.588Z,47.70
2018-07-24T13:52:20.486Z,47.80
2018-07-24T13:54:47.399Z,48.20
2018-07-24T13:57:14.265Z,48.00
2018-07-24T13:59:41.300Z,47.50
2018-07-24T14:02:08.171Z,46.50
2018-07-24T14:04:35.040Z,46.40
2018-07-24T14:07:02.016Z,46.70
2018-07-24T14:09:28.888Z,46.70
2018-07-24T14:11:55.801Z,45.60
2018-07-24T14:14:22.670Z,43.80
2018-07-24T14:16:49.579Z,44.10
2018-07-24T14:19:16.446Z,44.20
2018-07-24T14:21:43.366Z,44.90
2018-07-24T14:24:10.247Z,45.00
2018-07-24T14:26:37.161Z,43.90
2018-07-24T14:29:04.078Z,43.40
2018-07-24T14:31:30.952Z,43.60
2018-07-24T14:33:57.883Z,43.90
2018-07-24T14:36:24.776Z,44.10
2018-07-24T14:38:51.734Z,43.90
2018-07-24T14:41:18.608Z,44.20
2018-07-24T14:43:45.528Z,44.20
2018-07-24T14:46:12.703Z,44.20
2018-07-24T14:48:39.571Z,44.00
2018-07-24T14:51:06.561Z,43.70
2018-07-24T14:53:33.577Z,43.80
2018-07-24T14:56:00.451Z,43.70
2018-07-24T14:58:27.614Z,43.50
2018-07-24T15:00:54.484Z,43.10
2018-07-24T15:03:21.403Z,43.00
2018-07-24T15:05:48.287Z,42.50
2018-07-24T15:08:15.227Z,42.30
2018-07-24T15:13:09.024Z,43.10
2018-07-24T15:15:35.886Z,42.80
2018-07-24T15:18:02.839Z,42.90
2018-07-24T15:20:29.756Z,42.90
2018-07-24T15:22:56.619Z,42.70
2018-07-24T15:25:23.484Z,42.30
2018-07-24T15:27:50.399Z,41.70
2018-07-24T15:30:17.280Z,41.70
2018-07-24T15:32:44.500Z,41.90
2018-07-24T15:35:11.453Z,41.70
2018-07-24T15:37:38.350Z,41.60
2018-07-24T15:40:05.578Z,41.30
2018-07-24T15:42:32.476Z,40.20
2018-07-24T15:44:59.375Z,40.00
2018-07-24T15:47:26.291Z,40.40
2018-07-24T15:49:53.158Z,40.30
2018-07-24T15:52:20.028Z,39.30
2018-07-24T15:54:46.943Z,38.00
2018-07-24T15:57:13.803Z,37.90
2018-07-24T15:59:40.747Z,38.10
2018-07-24T16:02:07.607Z,38.40
2018-07-24T16:04:34.523Z,38.70
2018-07-24T16:07:01.419Z,38.60
2018-07-24T16:09:28.328Z,38.30
2018-07-24T16:11:55.190Z,38.20
2018-07-24T16:14:22.088Z,38.50
2018-07-24T16:16:48.947Z,38.70
2018-07-24T16:19:15.843Z,38.80
2018-07-24T16:21:42.715Z,38.80
2018-07-24T16:24:09.623Z,38.70
2018-07-24T16:26:36.540Z,38.40
2018-07-24T16:29:03.453Z,37.90
2018-07-24T16:31:30.332Z,37.60
2018-07-24T16:33:57.279Z,37.40
2018-07-24T16:36:24.183Z,36.70
2018-07-24T16:38:51.051Z,36.20
2018-07-24T16:41:18.044Z,35.60
2018-07-24T16:43:44.935Z,34.50
2018-07-24T16:46:11.854Z,34.20
2018-07-24T16:48:38.731Z,34.10
2018-07-24T16:51:05.643Z,33.80
2018-07-24T16:53:32.512Z,33.70
2018-07-24T16:55:59.434Z,33.80
2018-07-24T16:58:26.303Z,33.90
2018-07-24T17:00:53.236Z,33.80
2018-07-24T17:03:20.119Z,33.70
2018-07-24T17:05:46.996Z,33.70
2018-07-24T17:08:13.927Z,33.30
2018-07-24T17:10:40.847Z,33.20
2018-07-24T17:13:07.740Z,33.00
2018-07-24T17:15:34.616Z,32.90
2018-07-24T17:18:01.536Z,32.80
2018-07-24T17:20:28.413Z,32.60
2018-07-24T17:22:55.328Z,32.40
2018-07-24T17:25:22.201Z,32.30
2018-07-24T17:27:49.285Z,32.20
2018-07-24T17:30:16.118Z,32.00
2018-07-24T17:32:43.040Z,31.90
2018-07-24T17:35:09.918Z,31.80
2018-07-24T17:37:36.891Z,31.70
2018-07-24T17:40:03.765Z,31.60
2018-07-24T17:42:30.715Z,31.50
2018-07-24T17:44:57.586Z,31.40
2018-07-24T17:47:24.501Z,31.20
2018-07-24T17:49:51.371Z,31.10
2018-07-24T17:52:18.284Z,30.90
2018-07-24T17:54:45.154Z,30.80
2018-07-24T18:04:27.104Z,30.70
2018-07-24T18:06:54.078Z,30.50
2018-07-24T18:09:21.000Z,30.10
2018-07-24T18:11:47.879Z,29.90
2018-07-24T18:14:14.800Z,29.70
2018-07-24T18:16:41.755Z,29.50
2018-07-24T18:19:08.675Z,29.40
2018-07-24T18:21:35.582Z,29.30
2018-07-24T18:24:02.736Z,29.20
2018-07-24T18:26:29.627Z,29.10
2018-07-24T18:28:56.539Z,29.00
2018-07-24T18:31:23.407Z,28.90
2018-07-24T18:33:50.328Z,28.80
2018-07-24T18:36:17.236Z,28.70
2018-07-24T18:38:44.260Z,28.50
2018-07-24T18:41:11.088Z,28.40
2018-07-24T18:43:37.995Z,28.40
2018-07-24T18:46:04.902Z,28.30
2018-07-24T18:48:31.779Z,28.20
2018-07-24T18:50:58.720Z,28.10
2018-07-24T18:53:25.665Z,28.00
2018-07-24T18:55:52.531Z,27.80
2018-07-24T18:58:19.451Z,27.70
2018-07-24T19:00:46.319Z,27.60
2018-07-24T19:03:13.189Z,27.50
2018-07-24T19:05:40.095Z,27.40
2018-07-24T19:08:07.007Z,27.40
2018-07-24T19:10:33.880Z,27.20
2018-07-24T19:13:00.791Z,27.10
2018-07-24T19:15:27.707Z,27.00
2018-07-24T19:17:54.583Z,26.90
2018-07-24T19:20:21.495Z,26.90
2018-07-24T19:22:48.361Z,26.70
2018-07-24T19:25:15.284Z,26.70
2018-07-24T19:30:09.103Z,26.50
2018-07-24T19:32:36.022Z,26.40
2018-07-24T19:35:02.965Z,26.30
2018-07-24T19:37:30.143Z,26.20
2018-07-24T19:39:57.077Z,26.10
2018-07-24T19:42:23.939Z,26.10
2018-07-24T19:44:50.810Z,26.00
2018-07-24T19:47:17.763Z,25.90
2018-07-24T19:49:44.738Z,25.80
2018-07-24T19:52:11.607Z,25.70
2018-07-24T19:54:38.477Z,25.70
2018-07-24T19:57:05.398Z,25.60
2018-07-24T19:59:32.312Z,25.50
2018-07-24T20:04:26.096Z,25.40
2018-07-24T20:06:53.048Z,25.30
2018-07-24T20:09:20.015Z,25.30
2018-07-24T20:11:46.932Z,25.10
2018-07-24T20:14:13.799Z,25.00
2018-07-24T20:16:40.817Z,24.90
2018-07-24T20:19:07.673Z,24.80
2018-07-24T20:21:34.548Z,24.70
2018-07-24T20:24:01.417Z,24.60
2018-07-24T20:26:28.336Z,24.60
2018-07-24T20:28:55.283Z,24.60
2018-07-24T20:31:22.207Z,24.50
2018-07-24T20:33:49.083Z,24.50
2018-07-24T20:36:15.947Z,24.50
2018-07-24T20:38:42.858Z,24.50
2018-07-24T20:41:09.735Z,24.40
2018-07-24T20:43:36.650Z,24.40
2018-07-24T20:46:03.527Z,24.40
2018-07-24T20:48:30.455Z,24.40
2018-07-24T20:50:57.336Z,24.30
2018-07-24T20:53:24.298Z,24.30
2018-07-24T20:55:51.379Z,24.20
2018-07-24T20:58:18.256Z,24.10
2018-07-24T21:00:45.152Z,24.10
2018-07-24T21:03:12.090Z,24.00
2018-07-24T21:05:39.089Z,24.00
2018-07-24T21:08:05.964Z,23.90
2018-07-24T21:10:32.884Z,23.90
2018-07-24T21:12:59.798Z,23.80
2018-07-24T21:15:26.679Z,23.70
2018-07-24T21:17:53.588Z,23.70
2018-07-24T21:20:20.501Z,23.70
2018-07-24T21:22:47.463Z,23.60
2018-07-24T21:25:14.339Z,23.60
2018-07-24T21:27:41.212Z,23.60
2018-07-24T21:30:08.991Z,23.50
2018-07-24T21:35:02.738Z,23.60
2018-07-24T21:37:29.651Z,23.50
2018-07-24T21:39:56.535Z,23.50
2018-07-24T21:42:23.486Z,23.50
2018-07-24T21:44:50.388Z,23.40
2018-07-24T21:47:17.400Z,23.40
2018-07-24T21:49:44.483Z,23.30
2018-07-24T21:52:11.401Z,23.30
2018-07-24T21:54:38.310Z,23.30
2018-07-24T21:57:05.184Z,23.20
2018-07-24T21:59:32.821Z,23.20
2018-07-24T22:01:59.692Z,23.20
2018-07-24T22:04:26.612Z,23.10
2018-07-24T22:06:53.764Z,23.00
2018-07-24T22:09:20.631Z,23.00
2018-07-24T22:11:47.551Z,22.90
2018-07-24T22:14:14.468Z,22.90
2018-07-24T22:16:41.391Z,22.90
2018-07-24T22:19:08.329Z,22.90
2018-07-24T22:21:35.259Z,22.80
2018-07-24T22:24:02.132Z,22.70
2018-07-24T22:26:29.042Z,22.70
2018-07-24T22:31:22.819Z,22.50
2018-07-24T22:33:49.731Z,22.50
2018-07-24T22:36:16.609Z,22.40
2018-07-24T22:38:43.488Z,22.40
2018-07-24T22:41:10.491Z,22.40
2018-07-24T22:43:37.610Z,22.40
2018-07-24T22:46:04.775Z,22.30
2018-07-24T22:48:31.891Z,22.40
2018-07-24T22:50:58.767Z,22.40
2018-07-24T22:53:25.683Z,22.40
2018-07-24T22:55:52.598Z,22.40
2018-07-24T22:58:19.510Z,22.40
2018-07-24T23:00:46.419Z,22.40
2018-07-24T23:03:13.299Z,22.40
2018-07-24T23:05:40.206Z,22.30
2018-07-24T23:08:07.076Z,22.30
2018-07-24T23:10:34.024Z,22.30
2018-07-24T23:13:02.987Z,22.20
2018-07-24T23:15:29.984Z,22.20
2018-07-24T23:17:56.807Z,22.20
2018-07-24T23:20:23.871Z,22.20
2018-07-24T23:22:50.792Z,22.20
2018-07-24T23:25:17.659Z,22.10
2018-07-24T23:27:44.539Z,22.10
2018-07-24T23:30:11.452Z,22.00
2018-07-24T23:32:38.379Z,22.00
2018-07-24T23:35:05.470Z,21.90
2018-07-24T23:37:32.343Z,21.80
2018-07-24T23:39:59.255Z,21.80
2018-07-24T23:42:26.124Z,21.80
2018-07-24T23:44:53.048Z,21.70
2018-07-24T23:47:19.946Z,21.70
2018-07-24T23:49:46.824Z,21.70
2018-07-24T23:52:13.739Z,21.70
2018-07-24T23:54:40.608Z,21.70
2018-07-24T23:57:07.531Z,21.70
2018-07-24T23:59:34.392Z,21.70
